createdAt,value
2019-06-26T00:01:56.744Z,66.40
2019-06-26T00:04:25.548Z,67.00
2019-06-26T00:06:54.600Z,67.20
2019-06-26T00:09:23.987Z,67.40
2019-06-26T00:11:53.336Z,67.40
2019-06-26T00:14:21.678Z,67.40
2019-06-26T00:16:50.457Z,67.60
2019-06-26T00:19:19.054Z,67.80
2019-06-26T00:21:49.266Z,68.40
2019-06-26T00:24:18.355Z,68.90
2019-06-26T00:26:47.357Z,69.30
2019-06-26T00:29:17.162Z,69.70
2019-06-26T00:31:46.144Z,70.00
2019-06-26T00:34:15.132Z,70.20
2019-06-26T00:36:44.245Z,70.70
2019-06-26T00:39:14.064Z,70.70
2019-06-26T00:41:42.746Z,71.10
2019-06-26T00:44:11.432Z,71.50
2019-06-26T00:46:40.431Z,71.60
2019-06-26T00:49:09.114Z,72.30
2019-06-26T00:51:37.601Z,72.70
2019-06-26T00:54:06.266Z,73.20
2019-06-26T00:56:35.631Z,73.60
2019-06-26T00:59:04.663Z,73.60
2019-06-26T01:01:35.398Z,74.50
2019-06-26T01:04:10.497Z,74.50
2019-06-26T01:06:44.922Z,75.00
2019-06-26T01:09:14.818Z,75.00
2019-06-26T01:11:45.098Z,75.50
2019-06-26T01:14:14.420Z,76.00
2019-06-26T01:16:43.714Z,75.90
2019-06-26T01:19:12.405Z,75.90
2019-06-26T01:21:41.108Z,75.90
2019-06-26T01:24:11.765Z,76.00
2019-06-26T01:26:40.320Z,75.90
2019-06-26T01:29:09.416Z,76.10
2019-06-26T01:31:37.976Z,76.40
2019-06-26T01:34:06.671Z,77.00
2019-06-26T01:36:35.347Z,76.90
2019-06-26T01:39:05.567Z,77.20
2019-06-26T01:41:34.151Z,77.30
2019-06-26T01:44:14.131Z,78.30
2019-06-26T01:46:33.825Z,78.20
2019-06-26T01:49:02.698Z,78.80
2019-06-26T01:51:31.484Z,77.90
2019-06-26T01:54:00.176Z,77.90
2019-06-26T01:56:31.384Z,78.60
2019-06-26T01:59:01.468Z,79.10
2019-06-26T02:01:30.239Z,78.80
2019-06-26T02:04:00.960Z,79.00
2019-06-26T02:06:30.070Z,79.20
2019-06-26T02:08:59.032Z,79.60
2019-06-26T02:11:28.844Z,79.80
2019-06-26T02:13:57.453Z,79.90
2019-06-26T02:16:26.359Z,79.90
2019-06-26T02:18:59.169Z,80.20
2019-06-26T02:21:28.529Z,80.30
2019-06-26T02:23:57.655Z,80.40
2019-06-26T02:26:27.830Z,80.50
2019-06-26T02:28:56.339Z,80.60
2019-06-26T02:31:24.890Z,80.80
2019-06-26T02:33:53.635Z,81.80
2019-06-26T02:36:22.381Z,81.80
2019-06-26T02:38:51.210Z,82.10
2019-06-26T02:41:19.797Z,81.80
2019-06-26T02:43:48.905Z,82.00
2019-06-26T02:46:17.646Z,82.30
2019-06-26T02:48:46.961Z,82.80
2019-06-26T02:51:15.611Z,83.60
2019-06-26T02:53:44.430Z,82.80
2019-06-26T02:56:14.023Z,83.60
2019-06-26T02:58:42.721Z,83.80
2019-06-26T03:01:11.599Z,84.00
2019-06-26T03:03:40.294Z,84.40
2019-06-26T03:06:10.412Z,85.00
2019-06-26T03:08:39.007Z,84.90
2019-06-26T03:11:07.584Z,85.80
2019-06-26T03:13:37.807Z,85.60
2019-06-26T03:16:06.479Z,85.70
2019-06-26T03:18:35.572Z,86.20
2019-06-26T03:21:05.527Z,86.00
2019-06-26T03:23:34.417Z,86.50
2019-06-26T03:26:03.376Z,86.30
2019-06-26T03:28:33.721Z,86.20
2019-06-26T03:31:02.280Z,85.80
2019-06-26T03:33:30.989Z,85.90
2019-06-26T03:35:59.969Z,85.90
2019-06-26T03:38:29.678Z,85.90
2019-06-26T03:40:58.282Z,85.70
2019-06-26T03:43:26.782Z,86.00
2019-06-26T03:45:55.389Z,86.10
2019-06-26T03:48:24.034Z,86.00
2019-06-26T03:50:53.025Z,86.30
2019-06-26T03:53:21.746Z,86.10
2019-06-26T03:55:50.501Z,86.50
2019-06-26T03:58:19.077Z,86.60
2019-06-26T04:00:47.747Z,86.60
2019-06-26T04:03:16.061Z,86.50
2019-06-26T04:05:44.602Z,86.80
2019-06-26T04:08:15.050Z,86.70
2019-06-26T04:10:43.802Z,86.70
2019-06-26T04:13:12.404Z,86.70
2019-06-26T04:15:42.755Z,86.20
2019-06-26T04:18:10.939Z,86.40
2019-06-26T04:20:39.699Z,86.40
2019-06-26T04:23:08.098Z,86.40
2019-06-26T04:25:38.311Z,86.00
2019-06-26T04:28:07.317Z,85.60
2019-06-26T04:30:36.240Z,85.30
2019-06-26T04:33:04.756Z,84.80
2019-06-26T04:35:33.670Z,84.90
2019-06-26T04:38:02.331Z,84.80
2019-06-26T04:40:31.107Z,84.80
2019-06-26T04:43:00.075Z,85.00
2019-06-26T04:45:29.354Z,85.00
2019-06-26T04:47:59.021Z,85.30
2019-06-26T04:50:27.651Z,85.00
2019-06-26T04:52:55.988Z,84.90
2019-06-26T04:55:25.085Z,84.90
2019-06-26T04:57:53.562Z,84.90
2019-06-26T05:00:23.605Z,85.20
2019-06-26T05:02:51.993Z,85.00
2019-06-26T05:05:20.712Z,85.00
2019-06-26T05:07:49.059Z,85.00
2019-06-26T05:10:19.586Z,84.70
2019-06-26T05:12:48.269Z,84.60
2019-06-26T05:15:19.295Z,84.20
2019-06-26T05:17:49.568Z,84.10
2019-06-26T05:20:18.341Z,83.90
2019-06-26T05:22:46.691Z,84.50
2019-06-26T05:25:15.352Z,83.70
2019-06-26T05:27:43.698Z,82.90
2019-06-26T05:30:12.854Z,83.20
2019-06-26T05:32:43.297Z,83.00
2019-06-26T05:35:12.494Z,83.00
2019-06-26T05:37:40.991Z,82.10
2019-06-26T05:40:11.059Z,81.90
2019-06-26T05:42:39.755Z,82.20
2019-06-26T05:45:09.524Z,82.30
2019-06-26T05:47:37.905Z,82.10
2019-06-26T05:50:07.635Z,82.30
2019-06-26T05:52:36.469Z,82.20
2019-06-26T05:55:05.820Z,81.60
2019-06-26T05:57:34.205Z,81.60
2019-06-26T06:00:05.149Z,81.30
2019-06-26T06:02:33.696Z,81.30
2019-06-26T06:05:03.185Z,80.90
2019-06-26T06:07:31.986Z,80.50
2019-06-26T06:10:02.300Z,80.30
2019-06-26T06:12:32.660Z,80.30
2019-06-26T06:15:01.031Z,80.30
2019-06-26T06:17:30.110Z,79.90
2019-06-26T06:19:59.858Z,79.70
2019-06-26T06:22:30.383Z,79.70
2019-06-26T06:24:58.929Z,79.50
2019-06-26T06:27:27.691Z,79.30
2019-06-26T06:29:56.477Z,78.50
2019-06-26T06:32:24.986Z,78.50
2019-06-26T06:34:54.933Z,78.20
2019-06-26T06:37:23.599Z,78.40
2019-06-26T06:39:51.941Z,77.70
2019-06-26T06:42:21.192Z,78.00
2019-06-26T06:44:49.980Z,78.40
2019-06-26T06:47:18.630Z,77.30
2019-06-26T06:49:47.342Z,77.30
2019-06-26T06:52:17.393Z,77.60
2019-06-26T06:54:45.757Z,76.90
2019-06-26T06:57:14.320Z,76.40
2019-06-26T06:59:43.030Z,76.10
2019-06-26T07:02:11.349Z,76.20
2019-06-26T07:04:40.057Z,75.30
2019-06-26T07:07:08.784Z,74.40
2019-06-26T07:09:37.122Z,73.20
2019-06-26T07:12:05.510Z,72.60
2019-06-26T07:14:35.695Z,73.00
2019-06-26T07:17:19.278Z,71.70
2019-06-26T07:19:34.621Z,71.70
2019-06-26T07:22:07.198Z,70.80
2019-06-26T07:24:35.745Z,70.50
2019-06-26T07:27:04.366Z,69.90
2019-06-26T07:29:32.868Z,69.70
2019-06-26T07:32:02.016Z,69.20
2019-06-26T07:34:30.357Z,68.80
2019-06-26T07:37:02.490Z,68.60
2019-06-26T07:39:31.184Z,68.80
2019-06-26T07:41:59.908Z,68.00
2019-06-26T07:44:31.037Z,67.40
2019-06-26T07:47:00.520Z,66.40
2019-06-26T07:49:30.007Z,65.70
2019-06-26T07:51:58.869Z,64.20
2019-06-26T07:54:28.876Z,63.40
2019-06-26T07:56:58.164Z,63.70
2019-06-26T07:59:26.569Z,63.60
2019-06-26T08:01:55.280Z,62.00
2019-06-26T08:04:23.642Z,61.40
2019-06-26T08:06:52.373Z,61.60
2019-06-26T08:09:21.012Z,61.30
2019-06-26T08:11:49.815Z,60.60
2019-06-26T08:14:18.769Z,58.30
2019-06-26T08:16:49.209Z,56.20
2019-06-26T08:19:20.701Z,56.30
2019-06-26T08:21:49.798Z,56.00
2019-06-26T08:24:19.747Z,55.40
2019-06-26T08:26:48.444Z,55.60
2019-06-26T08:29:17.415Z,55.40
2019-06-26T08:31:46.014Z,54.30
2019-06-26T08:34:16.689Z,52.30
2019-06-26T08:36:45.496Z,51.80
2019-06-26T08:39:15.311Z,51.90
2019-06-26T08:41:43.793Z,51.10
2019-06-26T08:44:12.613Z,51.90
2019-06-26T08:46:41.492Z,50.60
2019-06-26T08:49:24.441Z,50.30
2019-06-26T08:51:41.607Z,50.50
2019-06-26T08:54:10.306Z,49.70
2019-06-26T08:56:39.348Z,49.20
2019-06-26T08:59:08.324Z,49.10
2019-06-26T09:01:37.101Z,49.10
2019-06-26T09:04:06.298Z,48.90
2019-06-26T09:06:35.382Z,48.90
2019-06-26T09:09:07.111Z,50.00
2019-06-26T09:11:36.349Z,49.50
2019-06-26T09:14:05.180Z,48.70
2019-06-26T09:16:34.208Z,49.00
2019-06-26T09:19:05.149Z,47.00
2019-06-26T09:21:34.003Z,47.00
2019-06-26T09:24:02.764Z,47.00
2019-06-26T09:26:33.078Z,46.80
2019-06-26T09:29:02.618Z,46.60
2019-06-26T09:31:31.613Z,46.60
2019-06-26T09:34:00.366Z,45.20
2019-06-26T09:36:29.576Z,45.40
2019-06-26T09:38:58.453Z,44.90
2019-06-26T09:41:28.201Z,45.30
2019-06-26T09:43:56.798Z,45.80
2019-06-26T09:46:25.491Z,44.90
2019-06-26T09:48:54.530Z,45.00
2019-06-26T09:51:23.286Z,44.80
2019-06-26T09:53:52.282Z,44.50
2019-06-26T09:56:21.439Z,41.80
2019-06-26T09:58:50.528Z,41.70
2019-06-26T10:01:19.289Z,42.00
2019-06-26T10:03:48.238Z,42.20
2019-06-26T10:06:16.757Z,41.30
2019-06-26T10:08:45.728Z,40.20
2019-06-26T10:11:14.720Z,40.10
2019-06-26T10:13:43.665Z,41.40
2019-06-26T10:16:12.665Z,41.40
2019-06-26T10:18:41.604Z,39.40
2019-06-26T10:21:12.486Z,39.40
2019-06-26T10:23:41.508Z,38.80
2019-06-26T10:26:10.786Z,39.00
2019-06-26T10:28:40.659Z,39.30
2019-06-26T10:31:09.490Z,39.90
2019-06-26T10:33:38.097Z,38.10
2019-06-26T10:36:07.253Z,36.30
2019-06-26T10:38:35.756Z,35.30
2019-06-26T10:41:04.405Z,34.60
2019-06-26T10:43:35.978Z,35.50
2019-06-26T10:46:05.252Z,36.80
2019-06-26T10:48:43.228Z,37.90
2019-06-26T10:51:12.190Z,38.20
2019-06-26T10:53:41.112Z,36.50
2019-06-26T10:56:09.741Z,36.40
2019-06-26T10:58:38.419Z,34.80
2019-06-26T11:01:09.013Z,35.30
2019-06-26T11:03:37.959Z,34.80
2019-06-26T11:06:06.274Z,35.60
2019-06-26T11:08:35.277Z,36.90
2019-06-26T11:11:04.019Z,38.00
2019-06-26T11:13:32.772Z,37.20
2019-06-26T11:16:02.764Z,36.20
2019-06-26T11:18:31.901Z,34.40
2019-06-26T11:21:01.756Z,35.00
2019-06-26T11:23:32.527Z,33.40
2019-06-26T11:26:02.245Z,32.50
2019-06-26T11:28:31.356Z,31.70
2019-06-26T11:31:02.106Z,32.00
2019-06-26T11:33:31.112Z,32.50
2019-06-26T11:35:59.805Z,32.70
2019-06-26T11:38:28.857Z,33.80
2019-06-26T11:40:57.611Z,35.10
2019-06-26T11:43:27.123Z,34.90
2019-06-26T11:45:56.983Z,35.60
2019-06-26T11:48:25.770Z,35.90
2019-06-26T11:50:54.325Z,35.70
2019-06-26T11:53:23.241Z,34.20
2019-06-26T11:55:53.404Z,33.80
2019-06-26T11:58:22.993Z,32.20
2019-06-26T12:00:51.892Z,29.20
2019-06-26T12:03:21.206Z,29.00
2019-06-26T12:05:50.202Z,29.80
2019-06-26T12:08:19.317Z,29.80
2019-06-26T12:10:48.174Z,29.40
2019-06-26T12:13:17.029Z,29.20
2019-06-26T12:15:45.833Z,30.40
2019-06-26T12:18:14.767Z,30.20
2019-06-26T12:20:43.936Z,29.50
2019-06-26T12:23:15.521Z,30.20
2019-06-26T12:25:46.452Z,30.30
2019-06-26T12:28:15.501Z,30.00
2019-06-26T12:30:44.184Z,29.80
2019-06-26T12:33:13.249Z,28.60
2019-06-26T12:35:41.840Z,28.30
2019-06-26T12:38:10.530Z,28.10
2019-06-26T12:40:39.732Z,27.80
2019-06-26T12:43:09.253Z,27.10
2019-06-26T12:45:38.153Z,28.50
2019-06-26T12:48:10.926Z,29.50
2019-06-26T12:50:40.091Z,29.60
2019-06-26T12:53:08.771Z,29.30
2019-06-26T12:55:37.533Z,28.20
2019-06-26T12:58:13.051Z,28.00
2019-06-26T13:00:37.922Z,29.40
2019-06-26T13:03:06.899Z,28.70
2019-06-26T13:05:36.799Z,28.90
2019-06-26T13:08:05.805Z,27.80
2019-06-26T13:10:48.989Z,28.10
2019-06-26T13:13:06.355Z,27.20
2019-06-26T13:15:36.255Z,27.40
2019-06-26T13:18:04.980Z,27.40
2019-06-26T13:20:33.522Z,27.60
2019-06-26T13:23:02.360Z,26.90
2019-06-26T13:25:31.045Z,27.30
2019-06-26T13:28:01.756Z,27.70
2019-06-26T13:30:36.977Z,27.50
2019-06-26T13:33:05.855Z,27.60
2019-06-26T13:35:36.592Z,28.10
2019-06-26T13:38:05.363Z,28.20
2019-06-26T13:40:34.088Z,28.40
2019-06-26T13:43:02.785Z,28.80
2019-06-26T13:45:31.457Z,28.50
2019-06-26T13:48:00.293Z,28.90
2019-06-26T13:50:32.525Z,28.90
2019-06-26T13:53:02.760Z,28.60
2019-06-26T13:55:31.462Z,29.20
2019-06-26T13:58:00.220Z,28.90
2019-06-26T14:00:29.415Z,28.80
2019-06-26T14:02:57.807Z,28.50
2019-06-26T14:05:29.496Z,28.30
2019-06-26T14:07:59.160Z,28.60
2019-06-26T14:10:27.897Z,28.40
2019-06-26T14:12:56.904Z,28.70
2019-06-26T14:15:25.934Z,28.90
2019-06-26T14:17:54.438Z,28.60
2019-06-26T14:20:23.214Z,28.80
2019-06-26T14:22:52.687Z,28.70
2019-06-26T14:25:21.972Z,29.20
2019-06-26T14:27:50.625Z,28.40
2019-06-26T14:30:21.879Z,28.50
2019-06-26T14:32:50.732Z,28.50
2019-06-26T14:35:19.533Z,28.30
2019-06-26T14:37:50.083Z,28.20
2019-06-26T14:40:18.675Z,28.60
2019-06-26T14:42:47.241Z,28.70
2019-06-26T14:45:16.126Z,29.00
2019-06-26T14:47:45.057Z,28.80
2019-06-26T14:50:13.862Z,29.60
2019-06-26T14:52:45.958Z,29.20
2019-06-26T14:55:15.272Z,28.90
2019-06-26T14:57:44.617Z,29.10
2019-06-26T15:00:14.012Z,29.40
2019-06-26T15:02:43.079Z,29.30
2019-06-26T15:05:11.890Z,29.30
2019-06-26T15:07:40.710Z,30.00
2019-06-26T15:10:10.071Z,29.80
2019-06-26T15:12:39.002Z,29.80
2019-06-26T15:15:08.166Z,29.50
2019-06-26T15:17:36.874Z,29.60
2019-06-26T15:20:07.226Z,29.40
2019-06-26T15:22:39.686Z,29.40
2019-06-26T15:25:08.766Z,29.00
2019-06-26T15:27:37.474Z,29.20
2019-06-26T15:30:06.601Z,29.20
2019-06-26T15:32:37.338Z,29.20
2019-06-26T15:35:07.510Z,29.50
2019-06-26T15:37:36.763Z,29.40
2019-06-26T15:40:05.881Z,29.40
2019-06-26T15:42:34.989Z,29.70
2019-06-26T15:45:04.603Z,29.60
2019-06-26T15:47:33.724Z,30.40
2019-06-26T15:50:02.419Z,29.40
2019-06-26T15:52:31.663Z,29.60
2019-06-26T15:55:02.114Z,28.90
2019-06-26T15:57:30.587Z,28.80
2019-06-26T15:59:59.617Z,29.50
2019-06-26T16:02:28.751Z,28.70
2019-06-26T16:04:57.835Z,28.30
2019-06-26T16:07:26.632Z,28.50
2019-06-26T16:09:55.693Z,28.30
2019-06-26T16:12:24.872Z,28.20
2019-06-26T16:14:53.884Z,28.30
2019-06-26T16:17:39.086Z,28.30
2019-06-26T16:20:08.411Z,28.50
2019-06-26T16:22:37.111Z,28.60
2019-06-26T16:25:06.620Z,28.60
2019-06-26T16:27:34.758Z,29.00
2019-06-26T16:30:04.397Z,28.90
2019-06-26T16:32:32.427Z,28.90
2019-06-26T16:35:03.561Z,28.70
2019-06-26T16:37:32.011Z,29.10
2019-06-26T16:40:02.868Z,29.20
2019-06-26T16:42:32.890Z,28.90
2019-06-26T16:45:01.903Z,28.90
2019-06-26T16:47:31.243Z,28.90
2019-06-26T16:49:59.759Z,29.20
2019-06-26T16:52:28.501Z,29.10
2019-06-26T16:54:57.130Z,29.10
2019-06-26T16:57:27.506Z,29.00
2019-06-26T17:00:08.880Z,29.10
2019-06-26T17:02:26.673Z,29.20
2019-06-26T17:04:55.800Z,29.00
2019-06-26T17:07:24.565Z,29.30
2019-06-26T17:09:53.613Z,29.30
2019-06-26T17:12:22.253Z,29.40
2019-06-26T17:14:52.520Z,29.40
2019-06-26T17:17:21.344Z,29.80
2019-06-26T17:19:50.117Z,29.70
2019-06-26T17:22:19.481Z,30.00
2019-06-26T17:24:48.692Z,29.50
2019-06-26T17:27:17.421Z,29.80
2019-06-26T17:29:45.964Z,29.70
2019-06-26T17:32:14.841Z,29.20
2019-06-26T17:34:43.474Z,29.40
2019-06-26T17:37:14.005Z,29.40
2019-06-26T17:39:43.090Z,29.90
2019-06-26T17:42:11.809Z,29.40
2019-06-26T17:44:42.042Z,29.20
2019-06-26T17:47:10.906Z,29.10
2019-06-26T17:49:40.573Z,29.20
2019-06-26T17:52:09.138Z,29.40
2019-06-26T17:54:37.986Z,29.40
2019-06-26T17:57:06.698Z,29.50
2019-06-26T17:59:36.026Z,29.60
2019-06-26T18:02:04.852Z,29.90
2019-06-26T18:04:33.650Z,29.60
2019-06-26T18:07:02.348Z,29.90
2019-06-26T18:09:31.326Z,29.90
2019-06-26T18:12:00.667Z,30.00
2019-06-26T18:14:31.089Z,30.00
2019-06-26T18:17:01.046Z,30.20
2019-06-26T18:19:30.381Z,30.30
2019-06-26T18:21:59.217Z,30.40
2019-06-26T18:24:28.308Z,30.50
2019-06-26T18:26:56.956Z,30.60
2019-06-26T18:29:25.795Z,30.90
2019-06-26T18:31:56.549Z,31.60
2019-06-26T18:34:25.137Z,31.00
2019-06-26T18:36:53.835Z,31.30
2019-06-26T18:39:24.401Z,31.50
2019-06-26T18:41:53.083Z,31.70
2019-06-26T18:44:21.734Z,31.70
2019-06-26T18:46:51.960Z,31.90
2019-06-26T18:49:21.208Z,32.00
2019-06-26T18:51:49.786Z,32.30
2019-06-26T18:54:18.589Z,32.70
2019-06-26T18:56:47.323Z,33.00
2019-06-26T18:59:16.466Z,33.20
2019-06-26T19:01:46.862Z,33.60
2019-06-26T19:04:21.934Z,33.80
2019-06-26T19:18:09.467Z,34.90
2019-06-26T19:20:40.143Z,35.20
2019-06-26T19:23:08.798Z,35.40
2019-06-26T19:25:37.454Z,35.80
2019-06-26T19:28:06.204Z,36.00
2019-06-26T19:30:34.811Z,36.50
2019-06-26T19:33:05.297Z,36.70
2019-06-26T19:35:34.107Z,37.00
2019-06-26T19:38:02.767Z,37.20
2019-06-26T19:40:35.002Z,37.50
2019-06-26T19:43:04.420Z,37.70
2019-06-26T19:45:33.346Z,37.80
2019-06-26T19:48:02.516Z,37.90
2019-06-26T19:50:31.449Z,38.00
2019-06-26T19:53:00.422Z,38.50
2019-06-26T19:55:28.732Z,38.80
2019-06-26T19:57:57.518Z,38.90
2019-06-26T20:00:26.452Z,39.20
2019-06-26T20:02:54.906Z,39.10
2019-06-26T20:05:23.576Z,39.40
2019-06-26T20:07:52.514Z,39.50
2019-06-26T20:10:21.354Z,39.90
2019-06-26T20:12:49.885Z,40.10
2019-06-26T20:15:18.606Z,40.30
2019-06-26T20:17:53.678Z,40.30
2019-06-26T20:20:22.458Z,40.40
2019-06-26T20:22:53.251Z,40.60
2019-06-26T20:25:22.011Z,40.60
2019-06-26T20:27:56.916Z,40.90
2019-06-26T20:30:27.276Z,41.10
2019-06-26T20:32:56.904Z,41.10
2019-06-26T20:35:25.938Z,41.30
2019-06-26T20:37:54.906Z,41.60
2019-06-26T20:40:24.180Z,41.60
2019-06-26T20:42:52.863Z,41.60
2019-06-26T20:45:21.995Z,41.80
2019-06-26T20:47:50.577Z,41.90
2019-06-26T20:50:19.520Z,41.80
2019-06-26T20:52:47.940Z,41.60
2019-06-26T20:55:16.961Z,41.70
2019-06-26T20:57:45.983Z,41.90
2019-06-26T21:00:15.646Z,41.90
2019-06-26T21:02:44.371Z,41.90
2019-06-26T21:05:13.217Z,42.10
2019-06-26T21:07:42.212Z,42.70
2019-06-26T21:10:11.575Z,42.70
2019-06-26T21:12:40.296Z,43.10
2019-06-26T21:15:10.437Z,43.00
2019-06-26T21:17:38.697Z,43.20
2019-06-26T21:20:07.868Z,43.40
2019-06-26T21:22:36.531Z,43.10
2019-06-26T21:25:17.484Z,43.10
2019-06-26T21:27:38.266Z,43.40
2019-06-26T21:30:09.255Z,43.50
2019-06-26T21:32:37.820Z,43.60
2019-06-26T21:35:06.269Z,43.80
2019-06-26T21:37:34.764Z,43.80
2019-06-26T21:40:03.978Z,44.00
2019-06-26T21:42:32.568Z,44.20
2019-06-26T21:45:01.047Z,44.40
2019-06-26T21:47:29.763Z,44.70
2019-06-26T21:49:58.388Z,44.90
2019-06-26T21:52:26.761Z,45.20
2019-06-26T21:54:55.284Z,45.30
2019-06-26T21:57:24.016Z,45.60
2019-06-26T21:59:52.838Z,45.90
2019-06-26T22:02:22.115Z,45.90
2019-06-26T22:04:50.655Z,46.10
2019-06-26T22:07:19.690Z,46.10
2019-06-26T22:09:48.438Z,46.40
2019-06-26T22:12:17.326Z,46.50
2019-06-26T22:14:45.959Z,46.90
2019-06-26T22:17:15.552Z,47.00
2019-06-26T22:19:44.714Z,47.40
2019-06-26T22:22:13.618Z,47.20
2019-06-26T22:24:42.566Z,47.50
2019-06-26T22:27:13.210Z,48.00
2019-06-26T22:29:42.101Z,48.20
2019-06-26T22:32:11.123Z,48.40
2019-06-26T22:34:39.785Z,48.60
2019-06-26T22:37:08.493Z,49.10
2019-06-26T22:39:38.037Z,49.40
2019-06-26T22:42:07.400Z,50.20
2019-06-26T22:44:36.360Z,50.30
2019-06-26T22:47:05.050Z,50.60
2019-06-26T22:49:33.449Z,50.40
2019-06-26T22:52:02.097Z,50.80
2019-06-26T22:54:31.109Z,50.70
2019-06-26T22:56:59.715Z,50.80
2019-06-26T22:59:28.524Z,50.80
2019-06-26T23:01:57.463Z,51.80
2019-06-26T23:04:26.133Z,51.90
2019-06-26T23:06:55.091Z,51.40
2019-06-26T23:09:23.804Z,51.60
2019-06-26T23:11:52.282Z,51.70
2019-06-26T23:14:20.968Z,51.70
2019-06-26T23:16:49.591Z,52.20
2019-06-26T23:19:18.239Z,52.00
2019-06-26T23:21:46.568Z,52.20
2019-06-26T23:24:14.992Z,52.40
2019-06-26T23:26:43.763Z,52.80
2019-06-26T23:29:14.264Z,53.00
2019-06-26T23:31:43.223Z,52.90
2019-06-26T23:34:12.093Z,53.00
2019-06-26T23:36:40.944Z,53.60
2019-06-26T23:39:09.637Z,53.70
2019-06-26T23:41:38.282Z,53.80
2019-06-26T23:44:07.008Z,53.90
2019-06-26T23:46:35.630Z,54.00
2019-06-26T23:49:04.715Z,54.40
2019-06-26T23:51:33.340Z,54.60
2019-06-26T23:54:02.122Z,54.80
2019-06-26T23:56:40.525Z,55.20
2019-06-26T23:59:02.266Z,55.60
